sensor_id;sensor_type;location;lat;lon;timestamp;P1;durP1;ratioP1;P2;durP2;ratioP2
70825;SDS011;58446;41.490;22.098;2023-06-26T00:02:13;17.10;;;13.50;;
70825;SDS011;58446;41.490;22.098;2023-06-26T00:04:38;20.63;;;14.17;;
70825;SDS011;58446;41.490;22.098;2023-06-26T00:07:04;19.95;;;14.50;;
70825;SDS011;58446;41.490;22.098;2023-06-26T00:09:30;19.17;;;14.32;;
70825;SDS011;58446;41.490;22.098;2023-06-26T00:11:56;20.10;;;14.07;;
70825;SDS011;58446;41.490;22.098;2023-06-26T00:14:21;19.48;;;13.57;;
70825;SDS011;58446;41.490;22.098;2023-06-26T00:16:47;17.70;;;13.67;;
70825;SDS011;58446;41.490;22.098;2023-06-26T00:19:15;21.40;;;14.25;;
70825;SDS011;58446;41.490;22.098;2023-06-26T00:21:41;19.97;;;13.87;;
70825;SDS011;58446;41.490;22.098;2023-06-26T00:24:13;19.50;;;14.30;;
70825;SDS011;58446;41.490;22.098;2023-06-26T00:26:39;18.05;;;13.77;;
70825;SDS011;58446;41.490;22.098;2023-06-26T00:29:05;20.10;;;13.87;;
70825;SDS011;58446;41.490;22.098;2023-06-26T00:31:30;19.50;;;13.95;;
70825;SDS011;58446;41.490;22.098;2023-06-26T00:33:56;17.83;;;14.00;;
70825;SDS011;58446;41.490;22.098;2023-06-26T00:36:22;18.17;;;13.55;;
70825;SDS011;58446;41.490;22.098;2023-06-26T00:38:51;17.92;;;13.63;;
70825;SDS011;58446;41.490;22.098;2023-06-26T00:41:17;19.60;;;14.67;;
70825;SDS011;58446;41.490;22.098;2023-06-26T00:43:43;16.83;;;13.02;;
70825;SDS011;58446;41.490;22.098;2023-06-26T00:46:13;19.25;;;13.65;;
70825;SDS011;58446;41.490;22.098;2023-06-26T00:48:40;16.87;;;11.80;;
70825;SDS011;58446;41.490;22.098;2023-06-26T00:51:07;19.50;;;12.75;;
70825;SDS011;58446;41.490;22.098;2023-06-26T00:53:33;17.27;;;11.73;;
70825;SDS011;58446;41.490;22.098;2023-06-26T00:55:59;16.33;;;11.00;;
70825;SDS011;58446;41.490;22.098;2023-06-26T00:58:27;17.25;;;10.35;;
70825;SDS011;58446;41.490;22.098;2023-06-26T01:00:52;16.85;;;9.80;;
70825;SDS011;58446;41.490;22.098;2023-06-26T01:03:27;14.17;;;9.27;;
70825;SDS011;58446;41.490;22.098;2023-06-26T01:05:53;15.82;;;9.23;;
70825;SDS011;58446;41.490;22.098;2023-06-26T01:08:21;14.65;;;7.30;;
70825;SDS011;58446;41.490;22.098;2023-06-26T01:10:48;13.73;;;7.57;;
70825;SDS011;58446;41.490;22.098;2023-06-26T01:13:14;13.38;;;7.00;;
70825;SDS011;58446;41.490;22.098;2023-06-26T01:15:41;13.20;;;7.43;;
70825;SDS011;58446;41.490;22.098;2023-06-26T01:18:08;15.35;;;6.38;;
70825;SDS011;58446;41.490;22.098;2023-06-26T01:20:35;12.57;;;6.97;;
70825;SDS011;58446;41.490;22.098;2023-06-26T01:28:41;14.73;;;9.65;;
70825;SDS011;58446;41.490;22.098;2023-06-26T01:31:08;13.60;;;7.88;;
70825;SDS011;58446;41.490;22.098;2023-06-26T01:33:35;12.93;;;8.10;;
70825;SDS011;58446;41.490;22.098;2023-06-26T01:36:01;13.93;;;7.97;;
70825;SDS011;58446;41.490;22.098;2023-06-26T01:38:28;13.37;;;7.67;;
70825;SDS011;58446;41.490;22.098;2023-06-26T01:40:53;14.95;;;7.30;;
70825;SDS011;58446;41.490;22.098;2023-06-26T01:46:25;14.60;;;6.97;;
70825;SDS011;58446;41.490;22.098;2023-06-26T01:49:02;14.32;;;7.30;;
70825;SDS011;58446;41.490;22.098;2023-06-26T01:51:42;14.73;;;7.60;;
70825;SDS011;58446;41.490;22.098;2023-06-26T01:54:17;13.23;;;7.80;;
70825;SDS011;58446;41.490;22.098;2023-06-26T01:56:45;14.00;;;6.93;;
70825;SDS011;58446;41.490;22.098;2023-06-26T01:59:14;14.30;;;7.13;;
70825;SDS011;58446;41.490;22.098;2023-06-26T02:01:40;13.05;;;6.57;;
70825;SDS011;58446;41.490;22.098;2023-06-26T02:04:06;13.75;;;7.50;;
70825;SDS011;58446;41.490;22.098;2023-06-26T02:06:31;17.30;;;8.40;;
70825;SDS011;58446;41.490;22.098;2023-06-26T02:08:57;14.90;;;7.60;;
70825;SDS011;58446;41.490;22.098;2023-06-26T02:11:23;13.10;;;7.85;;
70825;SDS011;58446;41.490;22.098;2023-06-26T02:13:48;13.73;;;8.07;;
70825;SDS011;58446;41.490;22.098;2023-06-26T02:16:14;13.63;;;7.80;;
70825;SDS011;58446;41.490;22.098;2023-06-26T02:18:40;13.30;;;8.27;;
70825;SDS011;58446;41.490;22.098;2023-06-26T02:21:06;14.63;;;8.55;;
70825;SDS011;58446;41.490;22.098;2023-06-26T02:23:32;18.30;;;9.43;;
70825;SDS011;58446;41.490;22.098;2023-06-26T02:25:58;15.23;;;7.67;;
70825;SDS011;58446;41.490;22.098;2023-06-26T02:28:23;15.57;;;8.20;;
70825;SDS011;58446;41.490;22.098;2023-06-26T02:30:49;14.70;;;8.47;;
70825;SDS011;58446;41.490;22.098;2023-06-26T02:33:14;13.98;;;8.32;;
70825;SDS011;58446;41.490;22.098;2023-06-26T02:35:40;14.87;;;8.33;;
70825;SDS011;58446;41.490;22.098;2023-06-26T02:38:06;15.30;;;8.77;;
70825;SDS011;58446;41.490;22.098;2023-06-26T02:40:31;12.87;;;7.80;;
70825;SDS011;58446;41.490;22.098;2023-06-26T02:42:58;15.05;;;9.05;;
70825;SDS011;58446;41.490;22.098;2023-06-26T02:45:24;13.87;;;9.00;;
70825;SDS011;58446;41.490;22.098;2023-06-26T02:47:49;14.20;;;9.02;;
70825;SDS011;58446;41.490;22.098;2023-06-26T02:50:15;14.43;;;7.80;;
70825;SDS011;58446;41.490;22.098;2023-06-26T02:52:41;13.30;;;7.93;;
70825;SDS011;58446;41.490;22.098;2023-06-26T02:55:06;13.70;;;8.30;;
70825;SDS011;58446;41.490;22.098;2023-06-26T02:57:32;15.88;;;8.02;;
70825;SDS011;58446;41.490;22.098;2023-06-26T02:59:58;14.37;;;8.60;;
70825;SDS011;58446;41.490;22.098;2023-06-26T03:02:23;15.18;;;8.02;;
70825;SDS011;58446;41.490;22.098;2023-06-26T03:04:49;13.53;;;7.40;;
70825;SDS011;58446;41.490;22.098;2023-06-26T03:07:15;13.17;;;6.77;;
70825;SDS011;58446;41.490;22.098;2023-06-26T03:09:41;15.07;;;7.27;;
70825;SDS011;58446;41.490;22.098;2023-06-26T03:12:07;13.77;;;7.45;;
70825;SDS011;58446;41.490;22.098;2023-06-26T03:14:33;13.93;;;6.90;;
70825;SDS011;58446;41.490;22.098;2023-06-26T03:16:59;14.00;;;7.67;;
70825;SDS011;58446;41.490;22.098;2023-06-26T03:19:28;14.07;;;7.35;;
70825;SDS011;58446;41.490;22.098;2023-06-26T03:21:54;15.05;;;7.60;;
70825;SDS011;58446;41.490;22.098;2023-06-26T03:24:20;13.77;;;6.72;;
70825;SDS011;58446;41.490;22.098;2023-06-26T03:26:46;13.63;;;8.07;;
70825;SDS011;58446;41.490;22.098;2023-06-26T03:29:11;13.35;;;7.75;;
70825;SDS011;58446;41.490;22.098;2023-06-26T03:31:37;13.10;;;7.33;;
70825;SDS011;58446;41.490;22.098;2023-06-26T03:34:03;14.88;;;7.97;;
70825;SDS011;58446;41.490;22.098;2023-06-26T03:36:28;14.70;;;8.00;;
70825;SDS011;58446;41.490;22.098;2023-06-26T03:38:54;14.53;;;8.00;;
70825;SDS011;58446;41.490;22.098;2023-06-26T03:41:22;17.20;;;9.05;;
70825;SDS011;58446;41.490;22.098;2023-06-26T03:43:48;13.82;;;8.05;;
70825;SDS011;58446;41.490;22.098;2023-06-26T03:46:14;14.93;;;8.80;;
70825;SDS011;58446;41.490;22.098;2023-06-26T03:48:40;13.85;;;7.95;;
70825;SDS011;58446;41.490;22.098;2023-06-26T03:51:06;16.25;;;9.00;;
70825;SDS011;58446;41.490;22.098;2023-06-26T03:53:32;18.60;;;9.10;;
70825;SDS011;58446;41.490;22.098;2023-06-26T03:55:58;18.75;;;9.70;;
70825;SDS011;58446;41.490;22.098;2023-06-26T03:58:24;17.42;;;9.85;;
70825;SDS011;58446;41.490;22.098;2023-06-26T04:00:50;18.57;;;11.33;;
70825;SDS011;58446;41.490;22.098;2023-06-26T04:03:16;18.50;;;12.13;;
70825;SDS011;58446;41.490;22.098;2023-06-26T04:05:42;21.67;;;13.38;;
70825;SDS011;58446;41.490;22.098;2023-06-26T04:08:08;23.33;;;13.03;;
70825;SDS011;58446;41.490;22.098;2023-06-26T04:10:33;18.35;;;12.43;;
70825;SDS011;58446;41.490;22.098;2023-06-26T04:13:01;20.75;;;13.35;;
70825;SDS011;58446;41.490;22.098;2023-06-26T04:15:27;21.20;;;16.03;;
70825;SDS011;58446;41.490;22.098;2023-06-26T04:17:52;21.27;;;14.57;;
70825;SDS011;58446;41.490;22.098;2023-06-26T04:20:18;20.13;;;14.73;;
70825;SDS011;58446;41.490;22.098;2023-06-26T04:22:43;20.15;;;13.45;;
70825;SDS011;58446;41.490;22.098;2023-06-26T04:25:09;23.47;;;14.80;;
70825;SDS011;58446;41.490;22.098;2023-06-26T04:27:37;21.35;;;14.27;;
70825;SDS011;58446;41.490;22.098;2023-06-26T04:30:03;20.95;;;15.20;;
70825;SDS011;58446;41.490;22.098;2023-06-26T04:32:30;21.87;;;14.13;;
70825;SDS011;58446;41.490;22.098;2023-06-26T04:34:55;20.55;;;14.50;;
70825;SDS011;58446;41.490;22.098;2023-06-26T04:37:21;19.97;;;15.00;;
70825;SDS011;58446;41.490;22.098;2023-06-26T04:39:47;21.08;;;15.00;;
70825;SDS011;58446;41.490;22.098;2023-06-26T04:42:13;22.05;;;15.18;;
70825;SDS011;58446;41.490;22.098;2023-06-26T04:44:39;20.50;;;15.23;;
70825;SDS011;58446;41.490;22.098;2023-06-26T04:47:06;22.38;;;16.52;;
70825;SDS011;58446;41.490;22.098;2023-06-26T04:49:33;21.00;;;14.85;;
70825;SDS011;58446;41.490;22.098;2023-06-26T04:51:59;20.97;;;15.27;;
70825;SDS011;58446;41.490;22.098;2023-06-26T04:54:26;21.10;;;14.20;;
70825;SDS011;58446;41.490;22.098;2023-06-26T04:56:53;21.52;;;15.50;;
70825;SDS011;58446;41.490;22.098;2023-06-26T04:59:18;21.42;;;16.42;;
70825;SDS011;58446;41.490;22.098;2023-06-26T05:01:44;24.40;;;16.37;;
70825;SDS011;58446;41.490;22.098;2023-06-26T05:04:13;21.20;;;15.63;;
70825;SDS011;58446;41.490;22.098;2023-06-26T05:06:40;20.10;;;14.70;;
70825;SDS011;58446;41.490;22.098;2023-06-26T05:09:05;21.23;;;14.83;;
70825;SDS011;58446;41.490;22.098;2023-06-26T05:11:31;21.90;;;14.90;;
70825;SDS011;58446;41.490;22.098;2023-06-26T05:13:57;19.97;;;14.43;;
70825;SDS011;58446;41.490;22.098;2023-06-26T05:16:22;20.38;;;15.20;;
70825;SDS011;58446;41.490;22.098;2023-06-26T05:18:48;20.60;;;15.97;;
70825;SDS011;58446;41.490;22.098;2023-06-26T05:21:15;19.80;;;15.52;;
70825;SDS011;58446;41.490;22.098;2023-06-26T05:23:41;22.80;;;15.50;;
70825;SDS011;58446;41.490;22.098;2023-06-26T05:26:09;19.50;;;15.68;;
70825;SDS011;58446;41.490;22.098;2023-06-26T05:28:36;21.67;;;14.67;;
70825;SDS011;58446;41.490;22.098;2023-06-26T05:31:02;19.50;;;14.45;;
70825;SDS011;58446;41.490;22.098;2023-06-26T05:33:30;20.13;;;14.38;;
70825;SDS011;58446;41.490;22.098;2023-06-26T05:35:56;20.90;;;14.95;;
70825;SDS011;58446;41.490;22.098;2023-06-26T05:38:23;20.48;;;14.88;;
70825;SDS011;58446;41.490;22.098;2023-06-26T05:40:50;21.07;;;14.33;;
70825;SDS011;58446;41.490;22.098;2023-06-26T05:43:16;21.00;;;14.35;;
70825;SDS011;58446;41.490;22.098;2023-06-26T05:45:41;21.02;;;15.07;;
70825;SDS011;58446;41.490;22.098;2023-06-26T05:48:07;21.23;;;15.07;;
70825;SDS011;58446;41.490;22.098;2023-06-26T05:50:33;19.92;;;13.98;;
70825;SDS011;58446;41.490;22.098;2023-06-26T05:52:59;19.88;;;14.23;;
70825;SDS011;58446;41.490;22.098;2023-06-26T05:55:28;19.42;;;14.70;;
70825;SDS011;58446;41.490;22.098;2023-06-26T05:57:54;18.80;;;13.70;;
70825;SDS011;58446;41.490;22.098;2023-06-26T06:00:23;20.58;;;14.85;;
70825;SDS011;58446;41.490;22.098;2023-06-26T06:02:51;18.88;;;14.73;;
70825;SDS011;58446;41.490;22.098;2023-06-26T06:05:23;21.05;;;16.70;;
70825;SDS011;58446;41.490;22.098;2023-06-26T06:07:49;20.55;;;15.43;;
70825;SDS011;58446;41.490;22.098;2023-06-26T06:10:15;20.70;;;16.47;;
70825;SDS011;58446;41.490;22.098;2023-06-26T06:12:41;21.05;;;14.75;;
70825;SDS011;58446;41.490;22.098;2023-06-26T06:15:07;19.70;;;14.10;;
70825;SDS011;58446;41.490;22.098;2023-06-26T06:17:32;17.57;;;12.83;;
70825;SDS011;58446;41.490;22.098;2023-06-26T06:19:58;21.67;;;14.25;;
70825;SDS011;58446;41.490;22.098;2023-06-26T06:22:24;19.83;;;14.60;;
70825;SDS011;58446;41.490;22.098;2023-06-26T06:24:50;19.38;;;15.23;;
70825;SDS011;58446;41.490;22.098;2023-06-26T06:27:16;20.27;;;14.27;;
70825;SDS011;58446;41.490;22.098;2023-06-26T06:29:42;17.30;;;11.43;;
70825;SDS011;58446;41.490;22.098;2023-06-26T06:32:07;19.35;;;14.23;;
70825;SDS011;58446;41.490;22.098;2023-06-26T06:34:33;18.50;;;13.97;;
70825;SDS011;58446;41.490;22.098;2023-06-26T06:36:59;20.23;;;13.90;;
70825;SDS011;58446;41.490;22.098;2023-06-26T06:39:25;18.33;;;13.53;;
70825;SDS011;58446;41.490;22.098;2023-06-26T06:41:50;18.90;;;13.77;;
70825;SDS011;58446;41.490;22.098;2023-06-26T06:44:16;21.20;;;13.77;;
70825;SDS011;58446;41.490;22.098;2023-06-26T06:46:42;17.10;;;13.00;;
70825;SDS011;58446;41.490;22.098;2023-06-26T06:49:08;18.88;;;13.05;;
70825;SDS011;58446;41.490;22.098;2023-06-26T06:51:34;16.77;;;13.43;;
70825;SDS011;58446;41.490;22.098;2023-06-26T06:53:59;17.25;;;13.38;;
70825;SDS011;58446;41.490;22.098;2023-06-26T06:56:26;17.95;;;13.90;;
70825;SDS011;58446;41.490;22.098;2023-06-26T06:58:53;17.23;;;13.10;;
70825;SDS011;58446;41.490;22.098;2023-06-26T07:01:19;17.02;;;12.77;;
70825;SDS011;58446;41.490;22.098;2023-06-26T07:03:45;16.52;;;12.70;;
70825;SDS011;58446;41.490;22.098;2023-06-26T07:06:10;17.93;;;12.80;;
70825;SDS011;58446;41.490;22.098;2023-06-26T07:08:36;17.07;;;13.17;;
70825;SDS011;58446;41.490;22.098;2023-06-26T07:11:01;20.92;;;13.27;;
70825;SDS011;58446;41.490;22.098;2023-06-26T07:13:28;19.45;;;14.02;;
70825;SDS011;58446;41.490;22.098;2023-06-26T07:15:53;18.07;;;11.80;;
70825;SDS011;58446;41.490;22.098;2023-06-26T07:18:19;19.40;;;12.40;;
70825;SDS011;58446;41.490;22.098;2023-06-26T07:20:45;17.17;;;13.55;;
70825;SDS011;58446;41.490;22.098;2023-06-26T07:23:10;18.40;;;13.33;;
70825;SDS011;58446;41.490;22.098;2023-06-26T07:25:36;17.90;;;13.27;;
70825;SDS011;58446;41.490;22.098;2023-06-26T07:28:02;15.77;;;11.40;;
70825;SDS011;58446;41.490;22.098;2023-06-26T07:30:28;18.50;;;12.07;;
70825;SDS011;58446;41.490;22.098;2023-06-26T07:32:53;16.23;;;11.10;;
70825;SDS011;58446;41.490;22.098;2023-06-26T07:35:19;19.08;;;11.55;;
70825;SDS011;58446;41.490;22.098;2023-06-26T07:37:45;17.27;;;12.40;;
70825;SDS011;58446;41.490;22.098;2023-06-26T07:40:10;16.88;;;11.70;;
70825;SDS011;58446;41.490;22.098;2023-06-26T07:42:36;16.58;;;10.88;;
70825;SDS011;58446;41.490;22.098;2023-06-26T07:45:02;15.23;;;10.33;;
70825;SDS011;58446;41.490;22.098;2023-06-26T07:47:35;17.02;;;11.82;;
70825;SDS011;58446;41.490;22.098;2023-06-26T07:50:02;14.68;;;9.65;;
70825;SDS011;58446;41.490;22.098;2023-06-26T07:52:28;17.55;;;11.38;;
70825;SDS011;58446;41.490;22.098;2023-06-26T07:54:55;16.53;;;11.43;;
70825;SDS011;58446;41.490;22.098;2023-06-26T07:57:21;16.15;;;10.50;;
70825;SDS011;58446;41.490;22.098;2023-06-26T07:59:47;17.05;;;10.88;;
70825;SDS011;58446;41.490;22.098;2023-06-26T08:02:12;21.40;;;11.23;;
70825;SDS011;58446;41.490;22.098;2023-06-26T08:04:38;15.60;;;9.93;;
70825;SDS011;58446;41.490;22.098;2023-06-26T08:07:03;14.98;;;10.48;;
70825;SDS011;58446;41.490;22.098;2023-06-26T08:09:30;13.93;;;10.07;;
70825;SDS011;58446;41.490;22.098;2023-06-26T08:11:56;13.13;;;9.43;;
70825;SDS011;58446;41.490;22.098;2023-06-26T08:14:22;14.30;;;10.35;;
70825;SDS011;58446;41.490;22.098;2023-06-26T08:16:48;16.65;;;11.32;;
70825;SDS011;58446;41.490;22.098;2023-06-26T08:19:14;14.82;;;9.82;;
70825;SDS011;58446;41.490;22.098;2023-06-26T08:21:41;14.30;;;10.33;;
70825;SDS011;58446;41.490;22.098;2023-06-26T08:24:07;16.13;;;10.55;;
70825;SDS011;58446;41.490;22.098;2023-06-26T08:26:33;17.17;;;10.73;;
70825;SDS011;58446;41.490;22.098;2023-06-26T08:29:02;16.85;;;12.05;;
70825;SDS011;58446;41.490;22.098;2023-06-26T08:31:33;16.03;;;10.27;;
70825;SDS011;58446;41.490;22.098;2023-06-26T08:34:00;15.77;;;10.80;;
70825;SDS011;58446;41.490;22.098;2023-06-26T08:36:26;17.75;;;12.05;;
70825;SDS011;58446;41.490;22.098;2023-06-26T08:38:52;17.27;;;10.07;;
70825;SDS011;58446;41.490;22.098;2023-06-26T08:41:18;16.17;;;10.50;;
70825;SDS011;58446;41.490;22.098;2023-06-26T08:43:44;14.98;;;11.23;;
70825;SDS011;58446;41.490;22.098;2023-06-26T08:46:11;16.05;;;11.30;;
70825;SDS011;58446;41.490;22.098;2023-06-26T08:48:39;14.80;;;10.40;;
70825;SDS011;58446;41.490;22.098;2023-06-26T08:51:12;15.13;;;10.80;;
70825;SDS011;58446;41.490;22.098;2023-06-26T08:53:58;16.40;;;11.15;;
70825;SDS011;58446;41.490;22.098;2023-06-26T08:56:27;16.60;;;11.30;;
70825;SDS011;58446;41.490;22.098;2023-06-26T08:58:57;16.65;;;10.70;;
70825;SDS011;58446;41.490;22.098;2023-06-26T09:01:24;16.65;;;11.38;;
70825;SDS011;58446;41.490;22.098;2023-06-26T09:03:50;12.77;;;7.63;;
70825;SDS011;58446;41.490;22.098;2023-06-26T09:06:17;15.68;;;9.38;;
70825;SDS011;58446;41.490;22.098;2023-06-26T09:08:43;13.60;;;9.20;;
70825;SDS011;58446;41.490;22.098;2023-06-26T09:11:09;11.85;;;8.88;;
70825;SDS011;58446;41.490;22.098;2023-06-26T09:13:35;11.77;;;8.30;;
70825;SDS011;58446;41.490;22.098;2023-06-26T09:16:04;11.18;;;8.10;;
70825;SDS011;58446;41.490;22.098;2023-06-26T09:18:33;11.23;;;7.50;;
70825;SDS011;58446;41.490;22.098;2023-06-26T09:20:59;12.35;;;8.10;;
70825;SDS011;58446;41.490;22.098;2023-06-26T09:23:26;11.95;;;8.00;;
70825;SDS011;58446;41.490;22.098;2023-06-26T09:25:51;13.50;;;7.88;;
70825;SDS011;58446;41.490;22.098;2023-06-26T09:28:17;10.97;;;7.33;;
70825;SDS011;58446;41.490;22.098;2023-06-26T09:30:44;11.05;;;7.07;;
70825;SDS011;58446;41.490;22.098;2023-06-26T09:33:14;12.68;;;7.60;;
70825;SDS011;58446;41.490;22.098;2023-06-26T09:35:41;11.63;;;7.70;;
70825;SDS011;58446;41.490;22.098;2023-06-26T09:38:07;10.70;;;7.63;;
70825;SDS011;58446;41.490;22.098;2023-06-26T09:40:33;10.53;;;7.50;;
70825;SDS011;58446;41.490;22.098;2023-06-26T09:43:07;11.50;;;7.13;;
70825;SDS011;58446;41.490;22.098;2023-06-26T09:45:33;10.25;;;6.60;;
70825;SDS011;58446;41.490;22.098;2023-06-26T09:48:01;10.60;;;6.68;;
70825;SDS011;58446;41.490;22.098;2023-06-26T09:50:33;10.03;;;7.20;;
70825;SDS011;58446;41.490;22.098;2023-06-26T09:53:09;12.70;;;7.60;;
70825;SDS011;58446;41.490;22.098;2023-06-26T09:55:36;11.65;;;7.25;;
70825;SDS011;58446;41.490;22.098;2023-06-26T09:58:02;10.52;;;7.45;;
70825;SDS011;58446;41.490;22.098;2023-06-26T10:00:32;12.52;;;7.45;;
70825;SDS011;58446;41.490;22.098;2023-06-26T10:02:58;12.90;;;7.33;;
70825;SDS011;58446;41.490;22.098;2023-06-26T10:05:24;14.13;;;8.57;;
70825;SDS011;58446;41.490;22.098;2023-06-26T10:07:50;12.30;;;8.18;;
70825;SDS011;58446;41.490;22.098;2023-06-26T10:10:18;11.50;;;8.07;;
70825;SDS011;58446;41.490;22.098;2023-06-26T10:12:45;11.52;;;8.00;;
70825;SDS011;58446;41.490;22.098;2023-06-26T10:15:13;12.15;;;8.10;;
70825;SDS011;58446;41.490;22.098;2023-06-26T10:17:42;10.73;;;7.57;;
70825;SDS011;58446;41.490;22.098;2023-06-26T10:20:10;11.65;;;7.90;;
70825;SDS011;58446;41.490;22.098;2023-06-26T10:22:39;10.33;;;7.00;;
70825;SDS011;58446;41.490;22.098;2023-06-26T10:25:09;14.23;;;7.93;;
70825;SDS011;58446;41.490;22.098;2023-06-26T10:27:41;11.88;;;7.82;;
70825;SDS011;58446;41.490;22.098;2023-06-26T10:30:11;11.75;;;7.28;;
70825;SDS011;58446;41.490;22.098;2023-06-26T10:32:46;12.85;;;6.63;;
70825;SDS011;58446;41.490;22.098;2023-06-26T10:35:12;10.67;;;7.37;;
70825;SDS011;58446;41.490;22.098;2023-06-26T10:37:42;10.20;;;6.50;;
70825;SDS011;58446;41.490;22.098;2023-06-26T10:40:12;10.35;;;6.18;;
70825;SDS011;58446;41.490;22.098;2023-06-26T10:42:39;11.73;;;7.22;;
70825;SDS011;58446;41.490;22.098;2023-06-26T10:45:18;11.80;;;6.32;;
70825;SDS011;58446;41.490;22.098;2023-06-26T10:47:46;10.57;;;6.23;;
70825;SDS011;58446;41.490;22.098;2023-06-26T10:50:25;9.05;;;5.85;;
70825;SDS011;58446;41.490;22.098;2023-06-26T10:53:13;9.00;;;5.88;;
70825;SDS011;58446;41.490;22.098;2023-06-26T10:56:00;10.57;;;6.63;;
70825;SDS011;58446;41.490;22.098;2023-06-26T10:58:28;10.57;;;7.18;;
70825;SDS011;58446;41.490;22.098;2023-06-26T11:03:46;9.27;;;6.18;;
70825;SDS011;58446;41.490;22.098;2023-06-26T11:06:18;19.95;;;11.50;;
70825;SDS011;58446;41.490;22.098;2023-06-26T11:08:49;10.13;;;6.93;;
70825;SDS011;58446;41.490;22.098;2023-06-26T11:11:19;10.35;;;8.00;;
70825;SDS011;58446;41.490;22.098;2023-06-26T11:14:08;11.73;;;7.43;;
70825;SDS011;58446;41.490;22.098;2023-06-26T11:16:35;10.68;;;6.43;;
70825;SDS011;58446;41.490;22.098;2023-06-26T11:19:01;10.75;;;7.47;;
70825;SDS011;58446;41.490;22.098;2023-06-26T11:21:27;12.63;;;8.18;;
70825;SDS011;58446;41.490;22.098;2023-06-26T11:23:53;12.33;;;7.90;;
70825;SDS011;58446;41.490;22.098;2023-06-26T11:26:23;12.27;;;6.60;;
70825;SDS011;58446;41.490;22.098;2023-06-26T11:31:35;11.82;;;8.70;;
70825;SDS011;58446;41.490;22.098;2023-06-26T11:34:02;12.15;;;8.07;;
70825;SDS011;58446;41.490;22.098;2023-06-26T11:36:30;10.63;;;6.10;;
70825;SDS011;58446;41.490;22.098;2023-06-26T11:38:56;10.70;;;6.90;;
70825;SDS011;58446;41.490;22.098;2023-06-26T11:41:24;10.55;;;6.50;;
70825;SDS011;58446;41.490;22.098;2023-06-26T11:43:51;10.20;;;6.45;;
70825;SDS011;58446;41.490;22.098;2023-06-26T11:46:18;9.45;;;7.25;;
70825;SDS011;58446;41.490;22.098;2023-06-26T11:48:45;11.17;;;5.83;;
70825;SDS011;58446;41.490;22.098;2023-06-26T11:51:14;11.50;;;6.05;;
70825;SDS011;58446;41.490;22.098;2023-06-26T11:53:42;8.57;;;5.55;;
70825;SDS011;58446;41.490;22.098;2023-06-26T11:56:14;9.38;;;5.65;;
70825;SDS011;58446;41.490;22.098;2023-06-26T12:01:42;15.65;;;7.15;;
70825;SDS011;58446;41.490;22.098;2023-06-26T12:04:12;10.63;;;6.43;;
70825;SDS011;58446;41.490;22.098;2023-06-26T12:06:42;10.23;;;6.38;;
70825;SDS011;58446;41.490;22.098;2023-06-26T12:09:10;9.68;;;6.05;;
70825;SDS011;58446;41.490;22.098;2023-06-26T12:11:37;9.63;;;6.10;;
70825;SDS011;58446;41.490;22.098;2023-06-26T12:14:05;11.32;;;6.03;;
70825;SDS011;58446;41.490;22.098;2023-06-26T12:16:32;10.77;;;5.90;;
70825;SDS011;58446;41.490;22.098;2023-06-26T12:18:59;9.68;;;5.82;;
70825;SDS011;58446;41.490;22.098;2023-06-26T12:21:34;14.88;;;5.53;;
70825;SDS011;58446;41.490;22.098;2023-06-26T12:24:14;10.27;;;5.60;;
70825;SDS011;58446;41.490;22.098;2023-06-26T12:26:43;10.02;;;6.07;;
70825;SDS011;58446;41.490;22.098;2023-06-26T12:29:11;9.50;;;5.50;;
70825;SDS011;58446;41.490;22.098;2023-06-26T12:31:41;10.27;;;5.45;;
70825;SDS011;58446;41.490;22.098;2023-06-26T12:34:09;10.30;;;6.13;;
70825;SDS011;58446;41.490;22.098;2023-06-26T12:36:44;8.63;;;4.87;;
70825;SDS011;58446;41.490;22.098;2023-06-26T12:39:12;9.98;;;5.20;;
70825;SDS011;58446;41.490;22.098;2023-06-26T12:42:21;9.40;;;5.60;;
70825;SDS011;58446;41.490;22.098;2023-06-26T12:44:28;11.13;;;6.35;;
70825;SDS011;58446;41.490;22.098;2023-06-26T12:46:56;10.55;;;6.20;;
70825;SDS011;58446;41.490;22.098;2023-06-26T12:49:56;10.03;;;5.40;;
70825;SDS011;58446;41.490;22.098;2023-06-26T12:52:16;9.13;;;5.45;;
70825;SDS011;58446;41.490;22.098;2023-06-26T12:54:44;8.95;;;5.45;;
70825;SDS011;58446;41.490;22.098;2023-06-26T12:57:11;9.85;;;5.40;;
70825;SDS011;58446;41.490;22.098;2023-06-26T12:59:39;10.93;;;6.50;;
70825;SDS011;58446;41.490;22.098;2023-06-26T13:02:05;15.93;;;6.30;;
70825;SDS011;58446;41.490;22.098;2023-06-26T13:04:32;10.52;;;5.32;;
70825;SDS011;58446;41.490;22.098;2023-06-26T13:06:58;10.40;;;6.55;;
70825;SDS011;58446;41.490;22.098;2023-06-26T13:09:24;9.77;;;6.57;;
70825;SDS011;58446;41.490;22.098;2023-06-26T13:11:51;9.53;;;5.30;;
70825;SDS011;58446;41.490;22.098;2023-06-26T13:14:20;14.07;;;6.82;;
70825;SDS011;58446;41.490;22.098;2023-06-26T13:16:46;12.20;;;6.82;;
70825;SDS011;58446;41.490;22.098;2023-06-26T13:19:11;13.73;;;8.05;;
70825;SDS011;58446;41.490;22.098;2023-06-26T13:21:37;12.93;;;6.57;;
70825;SDS011;58446;41.490;22.098;2023-06-26T13:24:03;11.23;;;5.93;;
70825;SDS011;58446;41.490;22.098;2023-06-26T13:26:29;10.40;;;5.83;;
70825;SDS011;58446;41.490;22.098;2023-06-26T13:28:56;11.00;;;6.00;;
70825;SDS011;58446;41.490;22.098;2023-06-26T13:31:22;11.10;;;6.88;;
70825;SDS011;58446;41.490;22.098;2023-06-26T13:33:48;9.77;;;5.40;;
70825;SDS011;58446;41.490;22.098;2023-06-26T13:36:14;9.68;;;6.10;;
70825;SDS011;58446;41.490;22.098;2023-06-26T13:38:41;8.18;;;4.90;;
70825;SDS011;58446;41.490;22.098;2023-06-26T13:41:06;8.73;;;5.50;;
70825;SDS011;58446;41.490;22.098;2023-06-26T13:43:32;10.52;;;5.38;;
70825;SDS011;58446;41.490;22.098;2023-06-26T13:45:58;8.40;;;4.90;;
70825;SDS011;58446;41.490;22.098;2023-06-26T13:48:24;8.75;;;5.03;;
70825;SDS011;58446;41.490;22.098;2023-06-26T13:50:49;10.60;;;5.30;;
70825;SDS011;58446;41.490;22.098;2023-06-26T13:53:16;9.95;;;5.13;;
70825;SDS011;58446;41.490;22.098;2023-06-26T13:55:42;8.52;;;5.25;;
70825;SDS011;58446;41.490;22.098;2023-06-26T13:58:08;9.00;;;4.80;;
70825;SDS011;58446;41.490;22.098;2023-06-26T14:00:34;10.48;;;5.28;;
70825;SDS011;58446;41.490;22.098;2023-06-26T14:03:01;9.47;;;4.53;;
70825;SDS011;58446;41.490;22.098;2023-06-26T14:05:29;8.68;;;4.78;;
70825;SDS011;58446;41.490;22.098;2023-06-26T14:07:55;10.65;;;5.18;;
70825;SDS011;58446;41.490;22.098;2023-06-26T14:10:22;9.37;;;4.43;;
70825;SDS011;58446;41.490;22.098;2023-06-26T14:12:47;8.05;;;4.18;;
70825;SDS011;58446;41.490;22.098;2023-06-26T14:15:13;9.77;;;5.47;;
70825;SDS011;58446;41.490;22.098;2023-06-26T14:17:39;11.33;;;5.30;;
70825;SDS011;58446;41.490;22.098;2023-06-26T14:20:08;10.13;;;4.28;;
70825;SDS011;58446;41.490;22.098;2023-06-26T14:22:38;9.32;;;4.22;;
70825;SDS011;58446;41.490;22.098;2023-06-26T14:25:05;7.63;;;4.40;;
70825;SDS011;58446;41.490;22.098;2023-06-26T14:27:35;6.33;;;2.90;;
70825;SDS011;58446;41.490;22.098;2023-06-26T14:30:01;10.77;;;3.50;;
70825;SDS011;58446;41.490;22.098;2023-06-26T14:32:27;8.65;;;4.22;;
70825;SDS011;58446;41.490;22.098;2023-06-26T14:34:54;8.73;;;4.22;;
70825;SDS011;58446;41.490;22.098;2023-06-26T14:37:19;8.67;;;4.30;;